Time;durP1;ratioP1;P1;durP2;ratioP2;P2;SDS_P1;SDS_P2;PMS_P1;PMS_P2;Temp;Humidity;BMP_temperature;BMP_pressure;BME280_temperature;BME280_humidity;BME280_pressure;Samples;Min_cycle;Max_cycle;Signal;HPM_P1;HPM_P2
2022/10/08 00:01:04;;;;;;;7.18;2.20;;;;;;;;;;5003412;28;20054;-86
2022/10/08 00:03:30;;;;;;;9.73;2.47;;;;;;;;;;4978312;28;20125;-86
2022/10/08 00:06:11;;;;;;;7.25;2.53;;;;;;;12.54;83.87;68161.06;4997226;28;20133;-86
2022/10/08 00:08:38;;;;;;;10.52;2.88;;;;;;;12.54;83.85;68166.97;4997603;28;20038;-87
2022/10/08 00:11:05;;;;;;;8.73;2.42;;;;;;;;;;4979606;28;20183;-87
2022/10/08 00:13:41;;;;;;;8.13;2.90;;;;;;;12.58;84.18;68166.19;4993008;28;20472;-86
2022/10/08 00:16:17;;;;;;;10.95;3.05;;;;;;;12.61;84.03;68174.38;4987921;28;20065;-86
2022/10/08 00:18:44;;;;;;;9.02;2.70;;;;;;;12.62;84.19;68170.16;4998912;28;20042;-86
2022/10/08 00:21:16;;;;;;;9.90;2.70;;;;;;;12.62;84.34;68170.16;5004224;28;20045;-86
2022/10/08 00:23:42;;;;;;;15.82;2.58;;;;;;;;;;4977896;28;20110;-87
2022/10/08 00:26:09;;;;;;;9.43;2.70;;;;;;;;;;4987115;28;20042;-86
2022/10/08 00:28:35;;;;;;;12.40;3.65;;;;;;;12.61;84.94;68174.38;4973659;28;20513;-86
2022/10/08 00:31:14;;;;;;;6.47;2.58;;;;;;;12.62;84.86;68175.50;4934500;28;20055;-86
2022/10/08 00:33:39;;;;;;;9.07;3.10;;;;;;;12.62;85.01;68175.50;4953452;28;20047;-88
2022/10/08 00:36:08;;;;;;;10.75;2.83;;;;;;;12.61;85.00;68169.03;4940333;28;20061;-85
2022/10/08 00:38:33;;;;;;;8.88;2.97;;;;;;;;;;4946040;28;20127;-86
2022/10/08 00:40:59;;;;;;;10.05;2.60;;;;;;;12.61;85.55;68169.03;4938628;29;20102;-86
2022/10/08 00:43:41;;;;;;;12.38;2.80;;;;;;;12.60;85.69;68173.22;4952243;28;20043;-85
2022/10/08 00:46:11;;;;;;;11.15;3.17;;;;;;;;;;4938812;29;20039;-87
2022/10/08 00:48:37;;;;;;;11.95;2.70;;;;;;;12.60;86.23;68173.81;4955774;28;20121;-87
2022/10/08 00:51:04;;;;;;;10.68;2.83;;;;;;;12.60;86.65;68173.22;4957001;28;20528;-86
2022/10/08 00:53:29;;;;;;;15.23;2.47;;;;;;;12.60;86.76;68168.47;4946082;28;20051;-85
2022/10/08 00:55:55;;;;;;;11.00;2.92;;;;;;;12.61;86.82;68174.38;5000474;28;20053;-87
2022/10/08 00:58:24;;;;;;;14.00;3.20;;;;;;;12.63;87.07;68176.66;4988471;28;20076;-85
2022/10/08 01:00:49;;;;;;;;;;;;;;;12.67;86.89;68175.28;4989622;28;20121;-85
2022/10/08 01:03:15;;;;;;;8.88;2.20;;;;;;;;;;4989973;28;19960;-85
2022/10/08 01:05:59;;;;;;;7.43;2.13;;;;;;;12.56;87.75;68161.25;4996110;28;20052;-85
2022/10/08 01:08:34;;;;;;;9.85;2.47;;;;;;;12.58;87.89;68165.63;4996452;28;20416;-86
2022/10/08 01:11:10;;;;;;;10.80;3.05;;;;;;;;;;4966236;28;20065;-86
2022/10/08 01:14:11;;;;;;;9.70;2.70;;;;;;;;;;4996433;28;20275;-87
2022/10/08 01:16:49;;;;;;;9.18;2.88;;;;;;;12.64;88.21;68172.44;4912206;29;20115;-85
2022/10/08 01:19:21;;;;;;;14.38;2.72;;;;;;;;;;4979449;28;20198;-85
2022/10/08 01:21:52;;;;;;;10.70;2.65;;;;;;;;;;4991430;28;20051;-86
2022/10/08 01:27:33;;;;;;;11.80;2.85;;;;;;;;;;4991632;28;20046;-86
2022/10/08 01:30:01;;;;;;;11.10;2.30;;;;;;;;;;4982529;28;20498;-86
2022/10/08 01:32:33;;;;;;;8.32;2.60;;;;;;;12.67;89.22;68181.19;4993764;28;20046;-86
2022/10/08 01:35:01;;;;;;;10.98;2.70;;;;;;;;;;4979740;28;20617;-87
2022/10/08 01:37:36;;;;;;;9.80;2.78;;;;;;;12.72;88.58;68181.53;4996127;28;20053;-87
2022/10/08 01:40:06;;;;;;;15.38;2.78;;;;;;;12.73;88.77;68188.00;4979504;28;20088;-87
2022/10/08 01:42:33;;;;;;;9.90;2.50;;;;;;;;;;4988418;28;20033;-87
2022/10/08 01:45:08;;;;;;;9.63;2.45;;;;;;;12.73;89.29;68182.66;4975749;28;20566;-86
2022/10/08 01:47:38;;;;;;;9.48;2.60;;;;;;;;;;4998909;28;20048;-87
2022/10/08 01:50:11;;;;;;;6.53;2.47;;;;;;;;;;4991024;28;20046;-85
2022/10/08 01:52:42;;;;;;;7.15;2.90;;;;;;;12.75;89.70;68184.94;4998529;28;20044;-87
2022/10/08 01:55:15;;;;;;;8.80;2.45;;;;;;;12.75;89.83;68184.94;4993236;28;20061;-86
2022/10/08 01:57:44;;;;;;;10.18;2.45;;;;;;;12.76;89.86;68191.41;4978364;28;20054;-86
2022/10/08 02:00:12;;;;;;;14.43;3.00;;;;;;;12.76;90.02;68186.06;4982463;28;20070;-87
2022/10/08 02:02:37;;;;;;;12.05;2.75;;;;;;;;;;5002452;28;20041;-86
2022/10/08 02:05:04;;;;;;;9.60;2.75;;;;;;;12.75;90.38;68182.28;4991344;28;20046;-86
2022/10/08 02:07:32;;;;;;;15.68;3.20;;;;;;;12.76;90.71;68185.50;4999727;28;20034;-86
2022/10/08 02:10:12;;;;;;;8.60;2.45;;;;;;;12.76;90.71;68190.84;4994559;28;20049;-87
2022/10/08 02:12:39;;;;;;;6.97;2.50;;;;;;;12.77;90.82;68186.66;4991061;28;20049;-86
2022/10/08 02:15:05;;;;;;;8.73;2.65;;;;;;;;;;4998598;28;20034;-87
2022/10/08 02:17:53;;;;;;;12.10;3.72;;;;;;;;;;4978284;28;20053;-86
2022/10/08 02:20:39;;;;;;;9.00;2.40;;;;;;;12.77;91.36;68187.22;5007972;28;20042;-87
2022/10/08 02:23:11;;;;;;;8.07;2.92;;;;;;;12.74;91.92;68189.13;4960527;28;20039;-86
2022/10/08 02:25:45;;;;;;;10.45;2.88;;;;;;;12.73;92.42;68190.69;4998283;28;20497;-87
2022/10/08 02:28:27;;;;;;;10.35;3.33;;;;;;;12.73;93.51;68188.00;4966246;28;20050;-87
2022/10/08 02:31:05;;;;;;;10.40;3.40;;;;;;;12.72;93.84;68181.53;4984174;28;20053;-86
2022/10/08 02:33:38;;;;;;;8.30;2.97;;;;;;;12.72;94.05;68175.63;4976046;28;20106;-86
2022/10/08 02:36:07;;;;;;;9.30;3.28;;;;;;;12.71;94.37;68185.72;4989454;28;20277;-87
2022/10/08 02:38:39;;;;;;;14.02;3.15;;;;;;;12.70;94.59;68179.25;4989335;28;20037;-86
2022/10/08 02:41:06;;;;;;;9.75;3.22;;;;;;;;;;4986825;28;20121;-87
2022/10/08 02:43:36;;;;;;;7.88;3.17;;;;;;;12.68;95.39;68176.41;4962538;28;20314;-86
2022/10/08 02:46:16;;;;;;;11.07;3.50;;;;;;;12.67;95.51;68175.28;4984382;28;20043;-87
2022/10/08 02:48:47;;;;;;;9.43;3.78;;;;;;;12.65;96.23;68179.47;4997651;28;20041;-86
2022/10/08 02:51:17;;;;;;;11.02;3.58;;;;;;;12.62;97.07;68170.72;4977690;28;20040;-87
2022/10/08 02:53:44;;;;;;;9.70;3.70;;;;;;;12.60;97.60;68173.22;4990679;28;20034;-87
2022/10/08 02:56:22;;;;;;;12.55;4.35;;;;;;;12.59;98.18;68166.75;4994957;28;20069;-87
2022/10/08 02:58:48;;;;;;;11.57;4.30;;;;;;;12.53;99.35;68159.94;5012575;28;20049;-87
2022/10/08 03:01:13;;;;;;;14.40;4.18;;;;;;;12.50;99.72;68156.53;5004247;28;20034;-86
2022/10/08 03:03:46;;;;;;;15.35;4.38;;;;;;;12.46;100.00;68157.91;4976855;28;20464;-89
2022/10/08 03:06:13;;;;;;;12.60;4.88;;;;;;;12.41;100.00;68146.88;4958592;28;20414;-86
2022/10/08 03:08:45;;;;;;;13.88;4.38;;;;;;;12.39;100.00;68144.59;5000644;28;20041;-87
2022/10/08 03:11:10;;;;;;;14.02;4.72;;;;;;;;;;4994015;28;20193;-88
2022/10/08 03:13:40;;;;;;;13.18;4.78;;;;;;;12.35;100.00;68145.41;4992504;28;20074;-86
2022/10/08 03:16:08;;;;;;;10.00;4.72;;;;;;;12.35;100.00;68140.63;4975761;28;20049;-86
2022/10/08 03:18:36;;;;;;;12.07;4.85;;;;;;;12.33;100.00;68138.34;4986477;28;20096;-86
2022/10/08 03:21:02;;;;;;;13.30;4.80;;;;;;;12.32;100.00;68136.66;4981850;28;20038;-85
2022/10/08 03:23:27;;;;;;;12.75;4.88;;;;;;;12.28;100.00;68138.00;4986002;28;20778;-85
2022/10/08 03:25:53;;;;;;;10.05;4.70;;;;;;;12.26;100.00;68130.41;4978580;28;20549;-86
2022/10/08 03:28:18;;;;;;;16.05;4.90;;;;;;;12.23;100.00;68127.00;4987852;28;20045;-86
2022/10/08 03:30:43;;;;;;;9.30;5.00;;;;;;;;;;5002674;28;20121;-87
2022/10/08 03:33:08;;;;;;;15.83;5.40;;;;;;;;;;4998826;28;20042;-86
2022/10/08 03:35:34;;;;;;;17.23;5.75;;;;;;;12.17;100.00;68120.19;4974677;28;20336;-87
2022/10/08 03:37:59;;;;;;;15.55;6.47;;;;;;;12.15;100.00;68117.91;4975028;28;20038;-86
2022/10/08 03:40:24;;;;;;;16.08;6.30;;;;;;;;;;4976522;28;20409;-86
2022/10/08 03:42:50;;;;;;;19.75;7.55;;;;;;;12.12;100.00;68114.50;4993364;28;20041;-87
2022/10/08 03:45:15;;;;;;;13.60;7.13;;;;;;;12.12;100.00;68119.81;4987940;28;20050;-86
2022/10/08 03:47:40;;;;;;;22.10;8.07;;;;;;;;;;4987758;28;20034;-87
2022/10/08 03:50:12;;;;;;;18.92;8.18;;;;;;;12.10;100.00;68118.13;4976436;28;20128;-86
2022/10/08 03:52:37;;;;;;;16.08;7.93;;;;;;;12.09;100.00;68108.97;5004673;28;20038;-86
2022/10/08 03:55:03;;;;;;;15.40;8.65;;;;;;;12.07;100.00;68109.38;4973648;28;20046;-86
2022/10/08 03:57:28;;;;;;;17.17;7.75;;;;;;;12.06;100.00;68107.69;4964645;28;20133;-87
2022/10/08 03:59:53;;;;;;;19.08;7.53;;;;;;;;;;4974376;28;20042;-87
2022/10/08 04:02:19;;;;;;;21.02;8.30;;;;;;;12.03;100.00;68104.84;4985138;28;20042;-86
2022/10/08 04:04:44;;;;;;;17.23;7.35;;;;;;;;;;4957137;28;20046;-86
2022/10/08 04:07:09;;;;;;;16.53;8.27;;;;;;;;;;4995160;28;20084;-86
2022/10/08 04:09:35;;;;;;;19.00;8.00;;;;;;;11.96;100.00;68097.44;4983955;28;20313;-87
2022/10/08 04:12:00;;;;;;;19.15;8.80;;;;;;;;;;4985340;28;20310;-86
2022/10/08 04:14:25;;;;;;;22.90;9.20;;;;;;;11.95;100.00;68101.63;4998864;28;20111;-87
2022/10/08 04:16:52;;;;;;;22.10;9.35;;;;;;;;;;4978238;28;20391;-86
2022/10/08 04:19:17;;;;;;;15.20;9.13;;;;;;;11.91;100.00;68091.78;4972091;28;20135;-87
2022/10/08 04:21:42;;;;;;;18.98;9.80;;;;;;;11.92;100.00;68098.22;4988207;28;20084;-86
2022/10/08 04:24:08;;;;;;;21.42;9.60;;;;;;;;;;4977684;28;20042;-86
2022/10/08 04:26:33;;;;;;;22.10;10.10;;;;;;;11.90;100.00;68090.63;4978155;28;20091;-86
2022/10/08 04:28:59;;;;;;;22.92;10.60;;;;;;;11.90;100.00;68090.06;4971901;28;20136;-86
2022/10/08 04:31:24;;;;;;;20.05;10.05;;;;;;;11.87;100.00;68092.53;4976281;28;20043;-86
2022/10/08 04:33:50;;;;;;;20.83;10.15;;;;;;;;;;4963035;28;20086;-87
2022/10/08 04:36:18;;;;;;;23.63;10.57;;;;;;;11.89;100.00;68088.94;4997126;28;20061;-86
2022/10/08 04:38:44;;;;;;;21.75;10.25;;;;;;;11.90;100.00;68090.63;4972641;28;20045;-88
2022/10/08 04:41:13;;;;;;;22.38;10.25;;;;;;;11.86;100.00;68086.09;4996193;28;20066;-86
2022/10/08 04:43:40;;;;;;;20.93;10.80;;;;;;;11.87;100.00;68086.66;4984252;28;20061;-86
2022/10/08 04:46:07;;;;;;;18.90;10.65;;;;;;;;;;4974005;28;20046;-86
2022/10/08 04:48:33;;;;;;;20.02;9.40;;;;;;;11.85;100.00;68089.69;4976669;28;20045;-86
2022/10/08 04:50:59;;;;;;;22.45;10.07;;;;;;;;;;4987940;28;20324;-86
2022/10/08 04:53:25;;;;;;;20.10;10.52;;;;;;;11.82;100.00;68081.50;4993748;28;20046;-86
2022/10/08 04:55:51;;;;;;;19.98;9.45;;;;;;;;;;4992817;28;20287;-86
2022/10/08 04:58:16;;;;;;;17.10;9.15;;;;;;;11.78;100.00;68076.97;4971391;28;20497;-88
2022/10/08 05:00:42;;;;;;;18.55;10.52;;;;;;;;;;4971363;28;20055;-86
2022/10/08 05:03:07;;;;;;;17.85;10.23;;;;;;;11.78;100.00;68082.31;4965914;28;20110;-86
2022/10/08 05:05:32;;;;;;;17.63;9.23;;;;;;;11.77;100.00;68075.25;4971952;28;20128;-87
2022/10/08 05:07:58;;;;;;;17.27;10.05;;;;;;;11.75;100.00;68081.56;4987423;28;20046;-86
2022/10/08 05:10:23;;;;;;;18.63;10.75;;;;;;;11.74;100.00;68072.44;4971266;28;20452;-86
2022/10/08 05:12:48;;;;;;;20.85;9.07;;;;;;;;;;4975618;28;20515;-86
2022/10/08 05:15:14;;;;;;;22.33;10.35;;;;;;;11.71;100.00;68074.38;4963392;28;20046;-85
2022/10/08 05:17:40;;;;;;;17.63;9.68;;;;;;;11.71;100.00;68069.03;4974583;28;20056;-88
2022/10/08 05:20:06;;;;;;;17.42;9.70;;;;;;;11.70;100.00;68067.88;4972716;28;20077;-86
2022/10/08 05:22:31;;;;;;;21.17;9.95;;;;;;;11.69;100.00;68072.09;4991380;28;20398;-87
2022/10/08 05:24:56;;;;;;;18.60;9.50;;;;;;;11.68;100.00;68066.19;4995603;28;20402;-87
2022/10/08 05:27:22;;;;;;;17.83;10.93;;;;;;;;;;4989019;28;20144;-86
2022/10/08 05:29:47;;;;;;;21.33;10.93;;;;;;;11.67;100.00;68069.81;4968617;28;20054;-86
2022/10/08 05:32:12;;;;;;;18.13;10.02;;;;;;;11.68;100.00;68070.94;4977152;28;20061;-85
2022/10/08 05:34:38;;;;;;;19.25;10.43;;;;;;;11.70;100.00;68073.78;4977341;28;20046;-86
2022/10/08 05:37:03;;;;;;;19.80;11.05;;;;;;;11.70;100.00;68065.22;4996477;28;20042;-86
2022/10/08 05:39:28;;;;;;;21.02;11.00;;;;;;;;;;4959716;28;20038;-86
2022/10/08 05:41:54;;;;;;;24.93;11.97;;;;;;;11.67;100.00;68070.38;4972224;28;20327;-87
2022/10/08 05:44:19;;;;;;;23.30;11.15;;;;;;;11.67;100.00;68069.81;4979862;28;20299;-86
2022/10/08 05:46:45;;;;;;;19.73;11.43;;;;;;;11.66;100.00;68060.69;4993352;28;20039;-85
2022/10/08 05:49:17;;;;;;;20.90;10.93;;;;;;;11.67;100.00;68069.81;4998686;28;20552;-84
2022/10/08 05:51:42;;;;;;;20.95;12.27;;;;;;;11.68;100.00;68070.94;4995237;28;20050;-86
2022/10/08 05:54:08;;;;;;;21.50;11.70;;;;;;;11.69;100.00;68066.75;4981815;28;20061;-86
2022/10/08 05:56:33;;;;;;;18.17;11.50;;;;;;;;;;4974310;28;20046;-86
2022/10/08 05:58:58;;;;;;;22.63;12.57;;;;;;;11.67;100.00;68070.38;4977064;28;20070;-85
2022/10/08 06:01:26;;;;;;;23.95;12.88;;;;;;;11.67;100.00;68064.47;4980420;28;20516;-86
2022/10/08 06:03:56;;;;;;;25.88;12.98;;;;;;;;;;4987824;28;20047;-86
2022/10/08 06:06:23;;;;;;;27.15;13.85;;;;;;;11.67;100.00;68069.81;4971423;28;20355;-87
2022/10/08 06:08:58;;;;;;;24.05;14.20;;;;;;;;;;4995491;28;20038;-85
2022/10/08 06:11:25;;;;;;;24.15;12.68;;;;;;;11.68;100.00;68062.94;4988140;28;20042;-86
2022/10/08 06:13:52;;;;;;;24.63;14.07;;;;;;;11.67;100.00;68064.47;5000487;28;20049;-88
2022/10/08 06:16:18;;;;;;;25.25;13.13;;;;;;;;;;4999154;28;20150;-85
2022/10/08 06:18:43;;;;;;;29.10;13.63;;;;;;;11.68;100.00;68065.59;4997935;28;20139;-86
2022/10/08 06:21:09;;;;;;;20.02;12.07;;;;;;;;;;4993895;28;20320;-86
2022/10/08 06:23:36;;;;;;;21.52;12.77;;;;;;;11.69;100.00;68072.09;4992947;28;20466;-86
2022/10/08 06:26:02;;;;;;;25.92;13.43;;;;;;;;;;4996869;28;20567;-89
2022/10/08 06:28:27;;;;;;;26.23;13.55;;;;;;;11.71;100.00;68074.38;4982624;28;20103;-87
2022/10/08 06:30:52;;;;;;;23.45;14.25;;;;;;;11.71;100.00;68074.94;4999962;28;20124;-86
2022/10/08 06:33:18;;;;;;;23.13;12.65;;;;;;;11.72;100.00;68075.50;4973251;28;20556;-87
2022/10/08 06:35:43;;;;;;;25.48;13.23;;;;;;;;;;4995177;28;20133;-86
2022/10/08 06:38:08;;;;;;;22.20;12.77;;;;;;;11.73;100.00;68071.28;4970069;28;20046;-86
2022/10/08 06:40:39;;;;;;;22.77;13.55;;;;;;;11.74;100.00;68072.44;5001943;28;20314;-88
2022/10/08 06:43:18;;;;;;;24.25;13.23;;;;;;;11.75;100.00;68073.56;4995950;28;20038;-85
2022/10/08 06:45:45;;;;;;;26.58;13.80;;;;;;;11.76;100.00;68074.69;4974252;28;20042;-87
2022/10/08 06:48:11;;;;;;;21.80;13.63;;;;;;;11.77;100.00;68075.84;4992275;28;20065;-86
2022/10/08 06:50:37;;;;;;;23.63;12.93;;;;;;;11.77;100.00;68075.25;4989711;28;20045;-86
2022/10/08 06:53:03;;;;;;;23.52;12.00;;;;;;;;;;4996552;28;20046;-86
2022/10/08 06:55:30;;;;;;;24.33;13.18;;;;;;;11.79;100.00;68077.53;4992518;28;20042;-87
2022/10/08 06:57:55;;;;;;;20.38;11.80;;;;;;;11.78;100.00;68082.31;4981567;28;20043;-86
2022/10/08 07:00:20;;;;;;;21.83;12.27;;;;;;;11.79;100.00;68078.09;4977019;28;20046;-87
2022/10/08 07:02:46;;;;;;;24.10;11.82;;;;;;;11.79;100.00;68077.53;4977806;28;20042;-87
2022/10/08 07:05:11;;;;;;;22.05;11.13;;;;;;;11.80;100.00;68084.03;4974069;28;20046;-88
2022/10/08 07:07:36;;;;;;;19.98;11.77;;;;;;;11.80;100.00;68084.59;4993483;28;20062;-87
2022/10/08 07:10:03;;;;;;;20.15;11.55;;;;;;;11.81;100.00;68079.81;4989108;28;20465;-86
2022/10/08 07:12:29;;;;;;;20.83;11.75;;;;;;;11.82;100.00;68086.28;4999974;28;20069;-86
2022/10/08 07:14:54;;;;;;;20.45;11.98;;;;;;;;;;4999506;28;20050;-86
2022/10/08 07:17:19;;;;;;;23.90;11.63;;;;;;;11.83;100.00;68088.00;4988747;28;20113;-86
2022/10/08 07:19:45;;;;;;;22.38;11.82;;;;;;;;;;4969592;28;20290;-86
2022/10/08 07:22:10;;;;;;;23.60;11.95;;;;;;;11.82;100.00;68080.94;4997630;28;20061;-86
2022/10/08 07:24:35;;;;;;;20.58;11.30;;;;;;;11.82;100.00;68086.28;4981424;28;20378;-87
2022/10/08 07:27:01;;;;;;;20.60;10.77;;;;;;;11.85;100.00;68090.28;4980631;28;20050;-86
2022/10/08 07:29:26;;;;;;;21.10;11.82;;;;;;;11.86;100.00;68086.09;4976196;28;20452;-87
2022/10/08 07:31:52;;;;;;;22.23;10.38;;;;;;;11.88;100.00;68093.13;4974048;28;20481;-86
2022/10/08 07:34:18;;;;;;;16.95;10.20;;;;;;;11.91;100.00;68097.09;4974012;28;20043;-86
2022/10/08 07:36:43;;;;;;;17.50;10.95;;;;;;;11.91;100.00;68096.53;4978491;28;20105;-86
2022/10/08 07:39:17;;;;;;;23.65;11.10;;;;;;;11.98;100.00;68103.91;4994355;28;20061;-86
2022/10/08 07:41:43;;;;;;;16.95;10.15;;;;;;;12.00;100.00;68106.75;4973528;28;20064;-86
2022/10/08 07:44:09;;;;;;;18.30;11.07;;;;;;;;;;4971331;28;20046;-86
2022/10/08 07:46:36;;;;;;;19.88;11.18;;;;;;;12.03;100.00;68110.16;4988095;28;20136;-88
2022/10/08 07:49:01;;;;;;;19.77;10.63;;;;;;;;;;4976978;28;20050;-87
2022/10/08 07:51:28;;;;;;;20.73;11.35;;;;;;;;;;4957209;28;20068;-85
2022/10/08 07:53:54;;;;;;;23.80;10.80;;;;;;;12.06;100.00;68113.00;4989683;28;20048;-86
2022/10/08 07:56:20;;;;;;;17.70;9.77;;;;;;;12.07;100.00;68114.13;4996577;28;20042;-86
2022/10/08 07:58:46;;;;;;;18.33;8.82;;;;;;;12.11;100.00;68118.69;4985514;28;20050;-86
2022/10/08 08:01:14;;;;;;;18.65;9.15;;;;;;;;;;4979226;28;20055;-87
2022/10/08 08:03:40;;;;;;;16.15;9.57;;;;;;;12.15;100.00;68123.78;4987840;28;20069;-87
2022/10/08 08:06:08;;;;;;;18.40;9.80;;;;;;;12.21;100.00;68130.06;4969495;28;20073;-86
2022/10/08 08:08:36;;;;;;;17.13;10.00;;;;;;;12.25;100.00;68134.03;4988885;28;20038;-87
2022/10/08 08:11:04;;;;;;;16.33;9.85;;;;;;;12.29;100.00;68139.16;4992224;28;20409;-89
2022/10/08 08:13:31;;;;;;;16.92;9.90;;;;;;;12.35;100.00;68140.63;4972986;28;20058;-86
2022/10/08 08:15:57;;;;;;;17.05;9.25;;;;;;;;;;4967177;28;20460;-87
2022/10/08 08:18:22;;;;;;;16.40;9.45;;;;;;;12.48;100.00;68154.81;4984788;28;20043;-89
2022/10/08 08:20:47;;;;;;;16.15;9.23;;;;;;;;;;4983426;28;20058;-87
2022/10/08 08:23:13;;;;;;;21.58;10.05;;;;;;;12.57;100.00;68169.81;4983356;28;20050;-86
2022/10/08 08:25:38;;;;;;;17.98;9.40;;;;;;;;;;4967219;28;20053;-87
2022/10/08 08:28:03;;;;;;;18.37;9.20;;;;;;;12.71;100.00;68185.16;4968070;28;20509;-87
2022/10/08 08:30:29;;;;;;;14.43;8.77;;;;;;;12.80;100.00;68195.97;4991155;28;20771;-87
2022/10/08 08:32:54;;;;;;;19.38;8.60;;;;;;;12.85;100.00;68201.66;4983612;28;20058;-87
2022/10/08 08:35:19;;;;;;;13.77;7.25;;;;;;;12.80;100.00;68198.66;4984661;28;20129;-87
2022/10/08 08:37:45;;;;;;;17.70;7.25;;;;;;;12.81;100.00;68191.78;5003004;28;20047;-88
2022/10/08 08:40:10;;;;;;;14.25;7.07;;;;;;;;;;5016388;28;20110;-89
2022/10/08 08:42:54;;;;;;;10.80;6.63;;;;;;;12.94;100.00;68213.41;5010595;28;20030;-88
2022/10/08 08:45:24;;;;;;;13.35;5.65;;;;;;;;;;4991688;28;20050;-91
2022/10/08 08:48:04;;;;;;;10.65;5.45;;;;;;;;;;5007048;28;20047;-90
2022/10/08 08:50:38;;;;;;;9.85;5.03;;;;;;;13.12;99.84;68230.63;5013985;28;20030;-91
2022/10/08 08:53:07;;;;;;;9.75;4.90;;;;;;;13.18;99.17;68240.16;4996937;28;20034;-91
2022/10/08 08:55:42;;;;;;;10.38;4.15;;;;;;;13.23;97.68;68237.81;4983180;28;20094;-93
2022/10/08 08:58:40;;;;;;;10.70;4.13;;;;;;;13.30;96.75;68245.81;4962214;28;20130;-92
2022/10/08 09:01:19;;;;;;;7.72;4.05;;;;;;;13.39;96.39;68252.78;4995299;28;20041;-89
2022/10/08 09:03:44;;;;;;;11.43;3.03;;;;;;;;;;4976882;28;20053;-87
2022/10/08 09:06:16;;;;;;;12.47;3.37;;;;;;;13.39;93.81;68260.81;4985813;28;20054;-88
2022/10/08 09:08:44;;;;;;;8.75;2.67;;;;;;;;;;4970414;28;20845;-87
2022/10/08 09:11:14;;;;;;;6.87;2.33;;;;;;;13.52;92.13;68276.19;4965471;28;20046;-86
2022/10/08 09:14:08;;;;;;;7.03;2.40;;;;;;;13.65;91.62;68289.81;4993665;28;20381;-87
2022/10/08 09:16:34;;;;;;;6.50;2.38;;;;;;;13.64;90.50;68283.91;4987581;28;20045;-87
2022/10/08 09:19:01;;;;;;;7.03;2.83;;;;;;;13.68;89.86;68293.78;4991270;28;20480;-87
2022/10/08 09:21:30;;;;;;;7.55;2.42;;;;;;;13.71;88.17;68291.28;4976491;28;20043;-86
2022/10/08 09:23:55;;;;;;;9.02;2.22;;;;;;;;;;4991059;28;20050;-86
2022/10/08 09:26:20;;;;;;;7.75;2.20;;;;;;;;;;4969217;28;20042;-88
2022/10/08 09:28:49;;;;;;;7.50;2.37;;;;;;;13.83;85.98;68301.69;4968380;28;20050;-87
2022/10/08 09:31:38;;;;;;;8.97;2.40;;;;;;;13.95;86.86;68315.94;4965479;28;20385;-88
2022/10/08 09:34:10;;;;;;;9.35;2.00;;;;;;;14.00;86.13;68323.72;4973691;28;20052;-87
2022/10/08 09:36:40;;;;;;;5.93;1.80;;;;;;;14.08;85.81;68337.59;4984928;28;20046;-88
2022/10/08 09:39:14;;;;;;;7.57;1.80;;;;;;;;;;4990051;28;20501;-87
2022/10/08 09:41:40;;;;;;;5.65;1.88;;;;;;;;;;4976789;28;20129;-87
2022/10/08 09:44:19;;;;;;;7.60;1.70;;;;;;;14.29;83.70;68355.59;4993770;28;20105;-88
2022/10/08 09:46:45;;;;;;;5.57;1.30;;;;;;;;;;4968601;28;20054;-87
2022/10/08 09:49:23;;;;;;;6.13;1.42;;;;;;;;;;4985509;28;20050;-86
2022/10/08 09:51:49;;;;;;;6.88;1.58;;;;;;;14.38;79.75;68371.19;4988967;28;20525;-88
2022/10/08 09:54:23;;;;;;;7.38;1.25;;;;;;;14.40;79.15;68376.13;4981539;28;20042;-87
2022/10/08 09:56:52;;;;;;;5.30;1.35;;;;;;;14.42;79.43;68370.38;4985778;28;20531;-87
2022/10/08 09:59:22;;;;;;;7.00;1.38;;;;;;;14.48;78.88;68382.56;4987116;28;20320;-87
2022/10/08 10:01:48;;;;;;;6.78;1.00;;;;;;;14.51;78.52;68375.28;4983336;28;20129;-87
2022/10/08 10:04:33;;;;;;;5.28;1.00;;;;;;;14.49;78.62;68377.78;4992918;28;20049;-87
2022/10/08 10:06:58;;;;;;;7.72;1.63;;;;;;;14.44;78.84;68378.00;4973049;28;20376;-87
2022/10/08 10:09:31;;;;;;;4.28;1.02;;;;;;;14.34;76.31;68367.19;4987974;28;20038;-87
2022/10/08 10:12:32;;;;;;;5.28;1.30;;;;;;;14.27;76.45;68359.25;4975452;28;20050;-87
2022/10/08 10:15:04;;;;;;;6.40;1.30;;;;;;;14.14;76.99;68344.44;4971003;28;20098;-88
2022/10/08 10:17:36;;;;;;;5.43;1.20;;;;;;;14.13;77.92;68343.88;4979609;28;20047;-87
2022/10/08 10:20:16;;;;;;;6.78;1.13;;;;;;;14.20;77.67;68345.91;4984590;28;20473;-88
2022/10/08 10:23:01;;;;;;;6.15;1.35;;;;;;;;;;4971097;28;20074;-88
2022/10/08 10:25:39;;;;;;;7.28;1.23;;;;;;;;;;4969949;28;20038;-89
2022/10/08 10:28:18;;;;;;;4.53;0.90;;;;;;;14.49;75.50;68378.34;4985932;28;20463;-88
2022/10/08 10:31:03;;;;;;;5.15;1.13;;;;;;;;;;4977369;28;20034;-87
2022/10/08 10:33:33;;;;;;;3.83;0.77;;;;;;;14.72;72.17;68403.41;4975667;28;20042;-88
2022/10/08 10:36:04;;;;;;;7.97;1.38;;;;;;;14.81;72.47;68414.22;4969955;28;20054;-87
2022/10/08 10:38:35;;;;;;;4.45;0.90;;;;;;;14.87;72.05;68420.50;4969533;28;20121;-87
2022/10/08 10:41:20;;;;;;;3.45;0.90;;;;;;;14.89;72.35;68420.09;4993823;28;20049;-87
2022/10/08 10:43:47;;;;;;;5.78;1.23;;;;;;;14.77;70.02;68409.13;4973657;28;20053;-87
2022/10/08 10:46:28;;;;;;;5.75;1.13;;;;;;;14.76;71.05;68413.31;4977231;28;20050;-87
2022/10/08 10:48:54;;;;;;;4.57;0.88;;;;;;;;;;4986704;28;20066;-89
2022/10/08 10:51:54;;;;;;;4.80;1.02;;;;;;;14.80;71.54;68417.88;4979549;28;20074;-87
2022/10/08 10:54:46;;;;;;;6.93;1.00;;;;;;;14.94;71.97;68435.94;4969563;28;20069;-88
2022/10/08 10:57:35;;;;;;;5.88;1.90;;;;;;;15.05;70.43;68441.00;4935641;28;20054;-88
2022/10/08 11:00:18;;;;;;;5.13;1.10;;;;;;;15.17;70.48;68453.53;4975282;28;20073;-87
2022/10/08 11:02:47;;;;;;;4.95;0.85;;;;;;;;;;4968002;28;20127;-88
2022/10/08 11:05:22;;;;;;;2.97;0.80;;;;;;;15.28;67.58;68472.00;4975532;28;20050;-87
2022/10/08 11:08:02;;;;;;;5.03;1.20;;;;;;;15.30;68.19;68468.88;4984789;28;20037;-86
2022/10/08 11:11:02;;;;;;;4.47;0.95;;;;;;;15.27;67.67;68460.09;4975505;28;20043;-89
2022/10/08 11:13:52;;;;;;;3.95;1.10;;;;;;;15.21;66.30;68458.06;4960569;28;20043;-88
2022/10/08 11:16:37;;;;;;;5.22;1.00;;;;;;;;;;4954997;28;20131;-87
2022/10/08 11:19:04;;;;;;;7.25;1.00;;;;;;;;;;4948358;28;20512;-87
2022/10/08 11:21:30;;;;;;;4.57;0.88;;;;;;;15.09;67.32;68442.88;4978417;28;20158;-87
2022/10/08 11:24:33;;;;;;;4.80;0.90;;;;;;;15.17;66.41;68453.53;4987640;28;20197;-87
2022/10/08 11:27:10;;;;;;;5.15;0.80;;;;;;;;;;4987503;28;20118;-87
2022/10/08 11:29:41;;;;;;;3.50;0.85;;;;;;;;;;4993105;28;20073;-87
2022/10/08 11:32:13;;;;;;;4.25;1.05;;;;;;;15.31;64.43;68469.47;4968497;28;20050;-86
2022/10/08 11:34:45;;;;;;;3.60;0.85;;;;;;;15.39;64.50;68475.88;4973539;28;20137;-86
2022/10/08 11:37:14;;;;;;;5.00;1.15;;;;;;;;;;4964321;28;20113;-88
2022/10/08 11:39:55;;;;;;;4.88;0.80;;;;;;;15.68;64.40;68511.06;4976668;28;20084;-87
2022/10/08 11:42:24;;;;;;;7.25;0.95;;;;;;;;;;4981455;28;20350;-88
2022/10/08 11:44:50;;;;;;;5.75;1.00;;;;;;;15.89;63.15;68534.44;4963694;28;20047;-87
2022/10/08 11:47:39;;;;;;;4.07;0.80;;;;;;;15.95;63.32;68540.69;4985158;28;20038;-89
2022/10/08 11:50:19;;;;;;;5.68;0.90;;;;;;;;;;4993123;28;20054;-89
2022/10/08 11:52:45;;;;;;;3.00;1.00;;;;;;;;;;4964017;28;20129;-85
2022/10/08 11:55:22;;;;;;;8.02;1.85;;;;;;;;;;4981266;28;20605;-87
2022/10/08 11:57:57;;;;;;;4.70;1.00;;;;;;;15.37;73.70;68481.09;4987937;28;20062;-87
2022/10/08 12:00:29;;;;;;;5.03;1.08;;;;;;;15.17;74.57;68459.47;4989958;28;20038;-87
2022/10/08 12:02:55;;;;;;;4.93;1.02;;;;;;;15.17;75.42;68453.53;4969425;28;20133;-87
2022/10/08 12:05:20;;;;;;;3.60;0.90;;;;;;;15.18;75.85;68455.22;4984068;28;20457;-89
2022/10/08 12:07:50;;;;;;;4.95;0.93;;;;;;;;;;4969140;28;20041;-87
2022/10/08 12:10:18;;;;;;;4.60;1.10;;;;;;;15.02;75.55;68432.22;4969661;28;20050;-86
2022/10/08 12:12:49;;;;;;;3.05;0.93;;;;;;;;;;4971023;28;20133;-87
2022/10/08 12:15:37;;;;;;;3.58;0.95;;;;;;;15.16;72.92;68452.38;4985775;28;20052;-87
2022/10/08 12:18:08;;;;;;;4.63;1.13;;;;;;;15.19;70.59;68456.38;4963005;28;20077;-88
2022/10/08 12:20:36;;;;;;;5.32;1.00;;;;;;;15.19;71.88;68461.16;4971864;28;20138;-89
2022/10/08 12:23:04;;;;;;;6.65;0.70;;;;;;;;;;4988366;28;20440;-87
2022/10/08 12:25:32;;;;;;;6.55;1.05;;;;;;;15.04;69.45;68439.84;4972758;28;20575;-87